sensor_id;sensor_type;location;lat;lon;timestamp;P1;durP1;ratioP1;P2;durP2;ratioP2
20443;SDS011;10381;53.730;10.010;2023-07-09T00:00:56;8.57;;;7.72;;
20443;SDS011;10381;53.730;10.010;2023-07-09T00:04:56;9.33;;;8.43;;
20443;SDS011;10381;53.730;10.010;2023-07-09T00:08:57;9.57;;;7.73;;
20443;SDS011;10381;53.730;10.010;2023-07-09T00:12:57;9.17;;;8.17;;
20443;SDS011;10381;53.730;10.010;2023-07-09T00:16:57;10.80;;;8.40;;
20443;SDS011;10381;53.730;10.010;2023-07-09T00:20:58;10.83;;;9.13;;
20443;SDS011;10381;53.730;10.010;2023-07-09T00:24:59;9.57;;;8.60;;
20443;SDS011;10381;53.730;10.010;2023-07-09T00:28:59;9.30;;;8.33;;
20443;SDS011;10381;53.730;10.010;2023-07-09T00:33:00;10.30;;;9.18;;
20443;SDS011;10381;53.730;10.010;2023-07-09T00:37:01;10.52;;;9.05;;
20443;SDS011;10381;53.730;10.010;2023-07-09T00:41:05;13.00;;;9.80;;
20443;SDS011;10381;53.730;10.010;2023-07-09T00:45:18;15.85;;;9.88;;
20443;SDS011;10381;53.730;10.010;2023-07-09T00:49:31;10.48;;;9.48;;
20443;SDS011;10381;53.730;10.010;2023-07-09T00:53:34;17.13;;;10.10;;
20443;SDS011;10381;53.730;10.010;2023-07-09T00:57:35;10.32;;;9.35;;
20443;SDS011;10381;53.730;10.010;2023-07-09T01:01:38;9.93;;;8.93;;
20443;SDS011;10381;53.730;10.010;2023-07-09T01:05:40;10.73;;;9.70;;
20443;SDS011;10381;53.730;10.010;2023-07-09T01:09:41;10.93;;;9.82;;
20443;SDS011;10381;53.730;10.010;2023-07-09T01:13:41;18.90;;;9.53;;
20443;SDS011;10381;53.730;10.010;2023-07-09T01:17:44;11.07;;;9.98;;
20443;SDS011;10381;53.730;10.010;2023-07-09T01:21:45;12.27;;;9.83;;
20443;SDS011;10381;53.730;10.010;2023-07-09T01:25:47;12.53;;;10.43;;
20443;SDS011;10381;53.730;10.010;2023-07-09T01:29:53;12.23;;;10.20;;
20443;SDS011;10381;53.730;10.010;2023-07-09T01:33:55;10.80;;;9.73;;
20443;SDS011;10381;53.730;10.010;2023-07-09T01:37:55;15.10;;;10.83;;
20443;SDS011;10381;53.730;10.010;2023-07-09T01:41:56;11.80;;;10.60;;
20443;SDS011;10381;53.730;10.010;2023-07-09T01:45:56;13.13;;;10.95;;
20443;SDS011;10381;53.730;10.010;2023-07-09T01:49:57;11.18;;;9.98;;
20443;SDS011;10381;53.730;10.010;2023-07-09T01:53:58;15.23;;;11.20;;
20443;SDS011;10381;53.730;10.010;2023-07-09T01:57:59;12.73;;;10.45;;
20443;SDS011;10381;53.730;10.010;2023-07-09T02:02:00;12.90;;;10.70;;
20443;SDS011;10381;53.730;10.010;2023-07-09T02:06:01;11.10;;;10.00;;
20443;SDS011;10381;53.730;10.010;2023-07-09T02:10:10;12.82;;;10.10;;
20443;SDS011;10381;53.730;10.010;2023-07-09T02:14:12;10.60;;;9.50;;
20443;SDS011;10381;53.730;10.010;2023-07-09T02:18:13;12.63;;;10.37;;
20443;SDS011;10381;53.730;10.010;2023-07-09T02:22:13;13.43;;;9.95;;
20443;SDS011;10381;53.730;10.010;2023-07-09T02:26:13;11.13;;;9.23;;
20443;SDS011;10381;53.730;10.010;2023-07-09T02:30:14;12.60;;;9.30;;
20443;SDS011;10381;53.730;10.010;2023-07-09T02:34:14;13.38;;;9.40;;
20443;SDS011;10381;53.730;10.010;2023-07-09T02:38:15;11.00;;;9.23;;
20443;SDS011;10381;53.730;10.010;2023-07-09T02:42:16;21.23;;;9.13;;
20443;SDS011;10381;53.730;10.010;2023-07-09T02:46:18;10.13;;;9.02;;
20443;SDS011;10381;53.730;10.010;2023-07-09T02:50:19;10.05;;;9.05;;
20443;SDS011;10381;53.730;10.010;2023-07-09T02:54:19;12.10;;;9.18;;
20443;SDS011;10381;53.730;10.010;2023-07-09T02:58:19;11.83;;;8.67;;
20443;SDS011;10381;53.730;10.010;2023-07-09T03:02:19;10.10;;;8.33;;
20443;SDS011;10381;53.730;10.010;2023-07-09T03:06:20;11.10;;;8.75;;
20443;SDS011;10381;53.730;10.010;2023-07-09T03:10:22;8.38;;;7.65;;
20443;SDS011;10381;53.730;10.010;2023-07-09T03:14:22;9.50;;;8.13;;
20443;SDS011;10381;53.730;10.010;2023-07-09T03:18:23;11.10;;;8.93;;
20443;SDS011;10381;53.730;10.010;2023-07-09T03:22:23;9.23;;;8.23;;
20443;SDS011;10381;53.730;10.010;2023-07-09T03:26:24;10.93;;;8.50;;
20443;SDS011;10381;53.730;10.010;2023-07-09T03:30:25;13.32;;;7.90;;
20443;SDS011;10381;53.730;10.010;2023-07-09T03:34:25;8.03;;;7.23;;
20443;SDS011;10381;53.730;10.010;2023-07-09T03:38:25;7.10;;;6.50;;
20443;SDS011;10381;53.730;10.010;2023-07-09T03:42:26;14.27;;;5.85;;
20443;SDS011;10381;53.730;10.010;2023-07-09T03:46:26;6.90;;;5.00;;
20443;SDS011;10381;53.730;10.010;2023-07-09T03:50:27;6.32;;;4.90;;
20443;SDS011;10381;53.730;10.010;2023-07-09T03:54:27;6.57;;;3.83;;
20443;SDS011;10381;53.730;10.010;2023-07-09T03:58:27;3.70;;;3.40;;
20443;SDS011;10381;53.730;10.010;2023-07-09T04:02:28;6.03;;;3.75;;
20443;SDS011;10381;53.730;10.010;2023-07-09T04:06:28;8.00;;;3.55;;
20443;SDS011;10381;53.730;10.010;2023-07-09T04:10:29;4.28;;;3.65;;
20443;SDS011;10381;53.730;10.010;2023-07-09T04:14:29;7.32;;;3.65;;
20443;SDS011;10381;53.730;10.010;2023-07-09T04:18:29;4.47;;;3.55;;
20443;SDS011;10381;53.730;10.010;2023-07-09T04:22:30;6.53;;;3.70;;
20443;SDS011;10381;53.730;10.010;2023-07-09T04:26:30;9.37;;;4.00;;
20443;SDS011;10381;53.730;10.010;2023-07-09T04:30:30;5.97;;;3.80;;
20443;SDS011;10381;53.730;10.010;2023-07-09T04:34:30;4.00;;;3.60;;
20443;SDS011;10381;53.730;10.010;2023-07-09T04:38:31;4.63;;;3.83;;
20443;SDS011;10381;53.730;10.010;2023-07-09T04:42:31;12.53;;;4.20;;
20443;SDS011;10381;53.730;10.010;2023-07-09T04:46:31;8.10;;;4.30;;
20443;SDS011;10381;53.730;10.010;2023-07-09T04:50:31;5.47;;;4.30;;
20443;SDS011;10381;53.730;10.010;2023-07-09T04:54:32;4.10;;;3.67;;
20443;SDS011;10381;53.730;10.010;2023-07-09T04:58:33;4.63;;;3.80;;
20443;SDS011;10381;53.730;10.010;2023-07-09T05:02:33;9.55;;;3.50;;
20443;SDS011;10381;53.730;10.010;2023-07-09T05:06:34;4.20;;;3.53;;
20443;SDS011;10381;53.730;10.010;2023-07-09T05:10:40;7.97;;;3.15;;
20443;SDS011;10381;53.730;10.010;2023-07-09T05:14:41;4.25;;;3.20;;
20443;SDS011;10381;53.730;10.010;2023-07-09T05:18:41;3.77;;;3.10;;
20443;SDS011;10381;53.730;10.010;2023-07-09T05:22:42;4.03;;;3.05;;
20443;SDS011;10381;53.730;10.010;2023-07-09T05:26:42;5.33;;;3.17;;
20443;SDS011;10381;53.730;10.010;2023-07-09T05:30:43;4.32;;;3.20;;
20443;SDS011;10381;53.730;10.010;2023-07-09T05:34:43;6.57;;;2.90;;
20443;SDS011;10381;53.730;10.010;2023-07-09T05:38:45;8.80;;;3.50;;
20443;SDS011;10381;53.730;10.010;2023-07-09T05:42:47;4.93;;;3.28;;
20443;SDS011;10381;53.730;10.010;2023-07-09T05:46:50;23.25;;;10.75;;
20443;SDS011;10381;53.730;10.010;2023-07-09T05:50:51;4.80;;;4.10;;
20443;SDS011;10381;53.730;10.010;2023-07-09T05:54:53;6.68;;;4.38;;
20443;SDS011;10381;53.730;10.010;2023-07-09T05:58:53;9.17;;;3.30;;
20443;SDS011;10381;53.730;10.010;2023-07-09T06:02:53;3.50;;;3.20;;
20443;SDS011;10381;53.730;10.010;2023-07-09T06:06:53;6.17;;;2.77;;
20443;SDS011;10381;53.730;10.010;2023-07-09T06:10:54;6.30;;;4.20;;
20443;SDS011;10381;53.730;10.010;2023-07-09T06:14:57;5.22;;;3.22;;
20443;SDS011;10381;53.730;10.010;2023-07-09T06:18:57;5.00;;;3.50;;
20443;SDS011;10381;53.730;10.010;2023-07-09T06:22:57;4.60;;;3.30;;
20443;SDS011;10381;53.730;10.010;2023-07-09T06:26:57;3.43;;;2.90;;
20443;SDS011;10381;53.730;10.010;2023-07-09T06:30:59;3.10;;;2.80;;
20443;SDS011;10381;53.730;10.010;2023-07-09T06:35:00;4.63;;;3.42;;
20443;SDS011;10381;53.730;10.010;2023-07-09T06:39:02;4.35;;;3.45;;
20443;SDS011;10381;53.730;10.010;2023-07-09T06:43:03;6.30;;;3.17;;
20443;SDS011;10381;53.730;10.010;2023-07-09T06:47:03;3.60;;;3.23;;
20443;SDS011;10381;53.730;10.010;2023-07-09T06:51:04;4.28;;;3.47;;
20443;SDS011;10381;53.730;10.010;2023-07-09T06:55:04;5.60;;;2.90;;
20443;SDS011;10381;53.730;10.010;2023-07-09T06:59:05;6.60;;;3.42;;
20443;SDS011;10381;53.730;10.010;2023-07-09T07:03:05;4.00;;;2.90;;
20443;SDS011;10381;53.730;10.010;2023-07-09T07:07:06;3.53;;;3.00;;
20443;SDS011;10381;53.730;10.010;2023-07-09T07:11:06;5.17;;;3.10;;
20443;SDS011;10381;53.730;10.010;2023-07-09T07:15:07;7.57;;;3.60;;
20443;SDS011;10381;53.730;10.010;2023-07-09T07:19:08;5.32;;;3.85;;
20443;SDS011;10381;53.730;10.010;2023-07-09T07:23:09;8.80;;;3.58;;
20443;SDS011;10381;53.730;10.010;2023-07-09T07:27:10;7.10;;;3.90;;
20443;SDS011;10381;53.730;10.010;2023-07-09T07:31:10;6.03;;;4.33;;
20443;SDS011;10381;53.730;10.010;2023-07-09T07:35:11;5.45;;;3.95;;
20443;SDS011;10381;53.730;10.010;2023-07-09T07:39:13;6.38;;;3.95;;
20443;SDS011;10381;53.730;10.010;2023-07-09T07:43:15;5.75;;;4.32;;
20443;SDS011;10381;53.730;10.010;2023-07-09T07:47:15;5.53;;;3.80;;
20443;SDS011;10381;53.730;10.010;2023-07-09T07:51:15;10.23;;;3.93;;
20443;SDS011;10381;53.730;10.010;2023-07-09T07:55:16;6.78;;;4.00;;
20443;SDS011;10381;53.730;10.010;2023-07-09T07:59:18;5.72;;;3.80;;
20443;SDS011;10381;53.730;10.010;2023-07-09T08:03:18;5.13;;;4.23;;
20443;SDS011;10381;53.730;10.010;2023-07-09T08:07:19;7.63;;;4.30;;
20443;SDS011;10381;53.730;10.010;2023-07-09T08:11:19;8.13;;;3.95;;
20443;SDS011;10381;53.730;10.010;2023-07-09T08:15:19;7.35;;;4.22;;
20443;SDS011;10381;53.730;10.010;2023-07-09T08:19:20;6.95;;;4.22;;
20443;SDS011;10381;53.730;10.010;2023-07-09T08:23:21;9.50;;;4.25;;
20443;SDS011;10381;53.730;10.010;2023-07-09T08:27:21;5.60;;;4.43;;
20443;SDS011;10381;53.730;10.010;2023-07-09T08:31:21;11.10;;;4.77;;
20443;SDS011;10381;53.730;10.010;2023-07-09T08:35:22;5.60;;;3.80;;
20443;SDS011;10381;53.730;10.010;2023-07-09T08:39:22;6.10;;;4.10;;
20443;SDS011;10381;53.730;10.010;2023-07-09T08:43:30;5.07;;;4.13;;
20443;SDS011;10381;53.730;10.010;2023-07-09T08:51:35;7.50;;;4.15;;
20443;SDS011;10381;53.730;10.010;2023-07-09T08:55:39;6.07;;;4.00;;
20443;SDS011;10381;53.730;10.010;2023-07-09T08:59:40;7.72;;;4.68;;
20443;SDS011;10381;53.730;10.010;2023-07-09T09:03:43;5.10;;;3.97;;
20443;SDS011;10381;53.730;10.010;2023-07-09T09:07:50;7.65;;;4.13;;
20443;SDS011;10381;53.730;10.010;2023-07-09T09:16:28;10.02;;;4.40;;
20443;SDS011;10381;53.730;10.010;2023-07-09T09:20:31;8.15;;;3.97;;
20443;SDS011;10381;53.730;10.010;2023-07-09T09:24:35;8.15;;;4.22;;
20443;SDS011;10381;53.730;10.010;2023-07-09T09:28:38;5.40;;;4.30;;
20443;SDS011;10381;53.730;10.010;2023-07-09T09:32:49;4.73;;;4.17;;
20443;SDS011;10381;53.730;10.010;2023-07-09T09:36:54;6.18;;;4.55;;
20443;SDS011;10381;53.730;10.010;2023-07-09T09:40:59;8.45;;;4.60;;
20443;SDS011;10381;53.730;10.010;2023-07-09T09:45:01;8.00;;;4.25;;
20443;SDS011;10381;53.730;10.010;2023-07-09T09:49:02;8.70;;;4.55;;
20443;SDS011;10381;53.730;10.010;2023-07-09T09:53:06;4.93;;;4.32;;
20443;SDS011;10381;53.730;10.010;2023-07-09T09:57:19;5.60;;;4.53;;
20443;SDS011;10381;53.730;10.010;2023-07-09T10:01:25;6.45;;;4.72;;
20443;SDS011;10381;53.730;10.010;2023-07-09T10:05:31;5.82;;;4.00;;
20443;SDS011;10381;53.730;10.010;2023-07-09T10:09:49;12.10;;;5.28;;
20443;SDS011;10381;53.730;10.010;2023-07-09T10:13:55;10.25;;;4.88;;
20443;SDS011;10381;53.730;10.010;2023-07-09T10:18:14;9.80;;;4.97;;
20443;SDS011;10381;53.730;10.010;2023-07-09T10:26:42;7.45;;;4.40;;
20443;SDS011;10381;53.730;10.010;2023-07-09T10:30:51;6.20;;;4.60;;
20443;SDS011;10381;53.730;10.010;2023-07-09T10:35:03;6.20;;;4.68;;
20443;SDS011;10381;53.730;10.010;2023-07-09T10:39:22;5.72;;;4.35;;
20443;SDS011;10381;53.730;10.010;2023-07-09T10:43:32;5.88;;;4.30;;
20443;SDS011;10381;53.730;10.010;2023-07-09T10:47:38;5.70;;;4.60;;
20443;SDS011;10381;53.730;10.010;2023-07-09T10:51:48;8.32;;;4.72;;
20443;SDS011;10381;53.730;10.010;2023-07-09T10:56:08;6.63;;;4.95;;
20443;SDS011;10381;53.730;10.010;2023-07-09T11:00:15;8.88;;;4.70;;
20443;SDS011;10381;53.730;10.010;2023-07-09T11:08:38;8.07;;;4.32;;
20443;SDS011;10381;53.730;10.010;2023-07-09T11:12:42;5.22;;;4.05;;
20443;SDS011;10381;53.730;10.010;2023-07-09T11:16:46;10.13;;;5.25;;
20443;SDS011;10381;53.730;10.010;2023-07-09T11:20:54;31.60;;;5.68;;
20443;SDS011;10381;53.730;10.010;2023-07-09T11:25:11;9.13;;;4.57;;
20443;SDS011;10381;53.730;10.010;2023-07-09T11:29:17;5.72;;;4.05;;
20443;SDS011;10381;53.730;10.010;2023-07-09T11:33:19;7.13;;;5.00;;
20443;SDS011;10381;53.730;10.010;2023-07-09T11:37:27;7.07;;;5.13;;
20443;SDS011;10381;53.730;10.010;2023-07-09T11:41:28;7.55;;;4.32;;
20443;SDS011;10381;53.730;10.010;2023-07-09T11:45:38;7.05;;;4.53;;
20443;SDS011;10381;53.730;10.010;2023-07-09T11:49:41;5.83;;;4.93;;
20443;SDS011;10381;53.730;10.010;2023-07-09T11:53:49;7.65;;;4.90;;
20443;SDS011;10381;53.730;10.010;2023-07-09T11:57:53;8.98;;;5.32;;
20443;SDS011;10381;53.730;10.010;2023-07-09T12:01:54;5.10;;;4.32;;
20443;SDS011;10381;53.730;10.010;2023-07-09T12:05:59;6.28;;;4.90;;
20443;SDS011;10381;53.730;10.010;2023-07-09T12:10:04;6.03;;;4.78;;
20443;SDS011;10381;53.730;10.010;2023-07-09T12:14:21;5.93;;;4.75;;
20443;SDS011;10381;53.730;10.010;2023-07-09T12:18:22;10.18;;;5.60;;
20443;SDS011;10381;53.730;10.010;2023-07-09T12:22:22;6.47;;;4.53;;
20443;SDS011;10381;53.730;10.010;2023-07-09T12:26:22;8.63;;;5.00;;
20443;SDS011;10381;53.730;10.010;2023-07-09T12:30:23;9.23;;;5.40;;
20443;SDS011;10381;53.730;10.010;2023-07-09T12:34:23;10.50;;;5.03;;
20443;SDS011;10381;53.730;10.010;2023-07-09T12:38:25;15.65;;;4.97;;
20443;SDS011;10381;53.730;10.010;2023-07-09T12:42:30;6.35;;;4.35;;
20443;SDS011;10381;53.730;10.010;2023-07-09T12:46:33;6.28;;;5.07;;
20443;SDS011;10381;53.730;10.010;2023-07-09T12:50:36;6.60;;;4.47;;
20443;SDS011;10381;53.730;10.010;2023-07-09T12:54:37;8.83;;;5.37;;
20443;SDS011;10381;53.730;10.010;2023-07-09T12:58:37;5.97;;;4.77;;
20443;SDS011;10381;53.730;10.010;2023-07-09T13:02:38;6.55;;;5.25;;
20443;SDS011;10381;53.730;10.010;2023-07-09T13:06:38;6.72;;;4.85;;
20443;SDS011;10381;53.730;10.010;2023-07-09T13:10:39;15.97;;;5.20;;
20443;SDS011;10381;53.730;10.010;2023-07-09T13:14:41;8.30;;;5.25;;
20443;SDS011;10381;53.730;10.010;2023-07-09T13:18:41;7.13;;;4.90;;
20443;SDS011;10381;53.730;10.010;2023-07-09T13:22:42;8.77;;;4.87;;
20443;SDS011;10381;53.730;10.010;2023-07-09T13:26:43;4.88;;;4.38;;
20443;SDS011;10381;53.730;10.010;2023-07-09T13:30:43;7.30;;;5.07;;
20443;SDS011;10381;53.730;10.010;2023-07-09T13:34:44;6.60;;;4.30;;
20443;SDS011;10381;53.730;10.010;2023-07-09T13:38:44;7.43;;;5.10;;
20443;SDS011;10381;53.730;10.010;2023-07-09T13:42:44;10.93;;;5.00;;
20443;SDS011;10381;53.730;10.010;2023-07-09T13:46:45;5.30;;;4.60;;
20443;SDS011;10381;53.730;10.010;2023-07-09T13:50:47;6.50;;;5.03;;
20443;SDS011;10381;53.730;10.010;2023-07-09T13:54:49;4.60;;;4.10;;
20443;SDS011;10381;53.730;10.010;2023-07-09T13:58:50;7.35;;;4.90;;
20443;SDS011;10381;53.730;10.010;2023-07-09T14:02:51;9.25;;;4.38;;
20443;SDS011;10381;53.730;10.010;2023-07-09T14:06:51;10.10;;;4.73;;
20443;SDS011;10381;53.730;10.010;2023-07-09T14:10:51;7.57;;;4.67;;
20443;SDS011;10381;53.730;10.010;2023-07-09T14:14:52;8.33;;;5.07;;
20443;SDS011;10381;53.730;10.010;2023-07-09T14:18:53;10.35;;;4.45;;
20443;SDS011;10381;53.730;10.010;2023-07-09T14:22:54;6.63;;;3.80;;
20443;SDS011;10381;53.730;10.010;2023-07-09T14:26:56;6.10;;;4.25;;
20443;SDS011;10381;53.730;10.010;2023-07-09T14:30:57;7.10;;;4.30;;
20443;SDS011;10381;53.730;10.010;2023-07-09T14:34:58;10.03;;;4.50;;
20443;SDS011;10381;53.730;10.010;2023-07-09T14:38:58;10.80;;;4.13;;
20443;SDS011;10381;53.730;10.010;2023-07-09T14:42:59;5.67;;;4.30;;
20443;SDS011;10381;53.730;10.010;2023-07-09T14:47:00;8.85;;;4.50;;
20443;SDS011;10381;53.730;10.010;2023-07-09T14:51:04;5.50;;;4.30;;
20443;SDS011;10381;53.730;10.010;2023-07-09T14:55:13;6.68;;;4.70;;
20443;SDS011;10381;53.730;10.010;2023-07-09T14:59:15;10.48;;;4.32;;
20443;SDS011;10381;53.730;10.010;2023-07-09T15:03:22;8.75;;;4.38;;
20443;SDS011;10381;53.730;10.010;2023-07-09T15:07:25;8.45;;;4.43;;
20443;SDS011;10381;53.730;10.010;2023-07-09T15:11:29;5.03;;;3.97;;
20443;SDS011;10381;53.730;10.010;2023-07-09T15:15:30;7.85;;;4.05;;
20443;SDS011;10381;53.730;10.010;2023-07-09T15:19:31;4.40;;;3.85;;
20443;SDS011;10381;53.730;10.010;2023-07-09T15:23:31;6.70;;;4.10;;
20443;SDS011;10381;53.730;10.010;2023-07-09T15:27:36;9.38;;;4.65;;
20443;SDS011;10381;53.730;10.010;2023-07-09T15:31:36;8.10;;;3.53;;
20443;SDS011;10381;53.730;10.010;2023-07-09T15:35:37;5.23;;;4.20;;
20443;SDS011;10381;53.730;10.010;2023-07-09T15:39:37;8.00;;;4.57;;
20443;SDS011;10381;53.730;10.010;2023-07-09T15:43:37;4.37;;;3.93;;
20443;SDS011;10381;53.730;10.010;2023-07-09T15:47:37;6.77;;;4.33;;
20443;SDS011;10381;53.730;10.010;2023-07-09T15:51:38;5.70;;;4.03;;
20443;SDS011;10381;53.730;10.010;2023-07-09T15:55:39;6.13;;;4.20;;
20443;SDS011;10381;53.730;10.010;2023-07-09T15:59:39;7.33;;;4.27;;
20443;SDS011;10381;53.730;10.010;2023-07-09T16:03:47;9.85;;;5.18;;
20443;SDS011;10381;53.730;10.010;2023-07-09T16:07:49;8.80;;;5.18;;
20443;SDS011;10381;53.730;10.010;2023-07-09T16:11:51;9.90;;;5.03;;
20443;SDS011;10381;53.730;10.010;2023-07-09T16:15:52;9.82;;;4.90;;
20443;SDS011;10381;53.730;10.010;2023-07-09T16:19:52;6.63;;;4.93;;
20443;SDS011;10381;53.730;10.010;2023-07-09T16:23:53;7.37;;;4.43;;
20443;SDS011;10381;53.730;10.010;2023-07-09T16:27:55;10.93;;;5.32;;
20443;SDS011;10381;53.730;10.010;2023-07-09T16:31:56;7.32;;;4.85;;
20443;SDS011;10381;53.730;10.010;2023-07-09T16:35:57;10.32;;;4.53;;
20443;SDS011;10381;53.730;10.010;2023-07-09T16:39:57;3.83;;;3.40;;
20443;SDS011;10381;53.730;10.010;2023-07-09T16:43:58;4.60;;;3.90;;
20443;SDS011;10381;53.730;10.010;2023-07-09T16:47:58;5.33;;;4.17;;
20443;SDS011;10381;53.730;10.010;2023-07-09T16:51:58;13.82;;;4.30;;
20443;SDS011;10381;53.730;10.010;2023-07-09T16:55:59;14.10;;;3.50;;
20443;SDS011;10381;53.730;10.010;2023-07-09T17:04:25;7.63;;;3.65;;
20443;SDS011;10381;53.730;10.010;2023-07-09T17:08:30;5.40;;;3.83;;
20443;SDS011;10381;53.730;10.010;2023-07-09T17:12:31;6.90;;;3.93;;
20443;SDS011;10381;53.730;10.010;2023-07-09T17:16:32;6.65;;;3.90;;
20443;SDS011;10381;53.730;10.010;2023-07-09T17:20:34;6.80;;;4.13;;
20443;SDS011;10381;53.730;10.010;2023-07-09T17:24:35;9.35;;;3.40;;
20443;SDS011;10381;53.730;10.010;2023-07-09T17:28:35;12.33;;;4.03;;
20443;SDS011;10381;53.730;10.010;2023-07-09T17:32:35;6.50;;;3.78;;
20443;SDS011;10381;53.730;10.010;2023-07-09T17:36:36;7.17;;;3.80;;
20443;SDS011;10381;53.730;10.010;2023-07-09T17:40:36;7.32;;;4.15;;
20443;SDS011;10381;53.730;10.010;2023-07-09T17:44:37;4.27;;;3.60;;
20443;SDS011;10381;53.730;10.010;2023-07-09T17:48:37;4.97;;;3.80;;
20443;SDS011;10381;53.730;10.010;2023-07-09T17:52:37;10.33;;;4.37;;
20443;SDS011;10381;53.730;10.010;2023-07-09T17:56:37;6.30;;;3.77;;
20443;SDS011;10381;53.730;10.010;2023-07-09T18:00:38;8.43;;;3.50;;
20443;SDS011;10381;53.730;10.010;2023-07-09T18:04:39;6.85;;;3.75;;
20443;SDS011;10381;53.730;10.010;2023-07-09T18:08:39;7.78;;;3.63;;
20443;SDS011;10381;53.730;10.010;2023-07-09T18:12:40;7.20;;;4.23;;
20443;SDS011;10381;53.730;10.010;2023-07-09T18:16:40;6.77;;;4.13;;
20443;SDS011;10381;53.730;10.010;2023-07-09T18:20:40;4.10;;;3.70;;
20443;SDS011;10381;53.730;10.010;2023-07-09T18:24:42;5.32;;;3.78;;
20443;SDS011;10381;53.730;10.010;2023-07-09T18:28:43;5.50;;;3.78;;
20443;SDS011;10381;53.730;10.010;2023-07-09T18:32:45;8.00;;;4.28;;
20443;SDS011;10381;53.730;10.010;2023-07-09T18:36:49;6.38;;;3.83;;
20443;SDS011;10381;53.730;10.010;2023-07-09T18:40:50;9.82;;;4.07;;
20443;SDS011;10381;53.730;10.010;2023-07-09T18:44:50;12.77;;;4.50;;
20443;SDS011;10381;53.730;10.010;2023-07-09T18:48:50;7.30;;;4.00;;
20443;SDS011;10381;53.730;10.010;2023-07-09T18:52:51;4.07;;;3.67;;
20443;SDS011;10381;53.730;10.010;2023-07-09T18:56:53;7.47;;;4.38;;
20443;SDS011;10381;53.730;10.010;2023-07-09T19:00:54;5.30;;;4.07;;
20443;SDS011;10381;53.730;10.010;2023-07-09T19:04:56;6.57;;;4.28;;
20443;SDS011;10381;53.730;10.010;2023-07-09T19:08:57;6.13;;;3.72;;
20443;SDS011;10381;53.730;10.010;2023-07-09T19:12:58;12.57;;;3.60;;
20443;SDS011;10381;53.730;10.010;2023-07-09T19:17:01;5.63;;;3.75;;
20443;SDS011;10381;53.730;10.010;2023-07-09T19:21:04;6.93;;;4.43;;
20443;SDS011;10381;53.730;10.010;2023-07-09T19:25:11;10.00;;;4.15;;
20443;SDS011;10381;53.730;10.010;2023-07-09T19:29:13;6.18;;;3.95;;
20443;SDS011;10381;53.730;10.010;2023-07-09T19:33:18;7.60;;;4.45;;
20443;SDS011;10381;53.730;10.010;2023-07-09T19:37:23;9.35;;;4.35;;
20443;SDS011;10381;53.730;10.010;2023-07-09T19:41:25;5.80;;;4.05;;
20443;SDS011;10381;53.730;10.010;2023-07-09T19:45:28;8.63;;;4.82;;
20443;SDS011;10381;53.730;10.010;2023-07-09T19:49:32;5.57;;;3.90;;
20443;SDS011;10381;53.730;10.010;2023-07-09T19:53:33;8.23;;;4.40;;
20443;SDS011;10381;53.730;10.010;2023-07-09T19:57:33;7.27;;;4.43;;
20443;SDS011;10381;53.730;10.010;2023-07-09T20:01:33;7.30;;;4.00;;
20443;SDS011;10381;53.730;10.010;2023-07-09T20:05:34;10.75;;;4.82;;
20443;SDS011;10381;53.730;10.010;2023-07-09T20:09:34;9.20;;;5.20;;
20443;SDS011;10381;53.730;10.010;2023-07-09T20:13:34;12.48;;;4.90;;
20443;SDS011;10381;53.730;10.010;2023-07-09T20:17:35;19.52;;;6.05;;
20443;SDS011;10381;53.730;10.010;2023-07-09T20:21:35;9.63;;;5.93;;
20443;SDS011;10381;53.730;10.010;2023-07-09T20:25:37;9.00;;;6.45;;
20443;SDS011;10381;53.730;10.010;2023-07-09T20:29:38;21.85;;;7.60;;
20443;SDS011;10381;53.730;10.010;2023-07-09T20:33:39;8.88;;;5.90;;
20443;SDS011;10381;53.730;10.010;2023-07-09T20:37:39;12.77;;;6.90;;
20443;SDS011;10381;53.730;10.010;2023-07-09T20:41:40;8.20;;;5.13;;
20443;SDS011;10381;53.730;10.010;2023-07-09T20:45:43;13.50;;;5.63;;
20443;SDS011;10381;53.730;10.010;2023-07-09T20:49:43;12.00;;;7.10;;
20443;SDS011;10381;53.730;10.010;2023-07-09T20:53:44;13.43;;;7.68;;
20443;SDS011;10381;53.730;10.010;2023-07-09T20:57:45;17.58;;;7.28;;
20443;SDS011;10381;53.730;10.010;2023-07-09T21:01:46;12.25;;;6.78;;
20443;SDS011;10381;53.730;10.010;2023-07-09T21:05:46;10.73;;;6.90;;
20443;SDS011;10381;53.730;10.010;2023-07-09T21:09:49;19.30;;;7.75;;
20443;SDS011;10381;53.730;10.010;2023-07-09T21:13:49;12.67;;;6.53;;
20443;SDS011;10381;53.730;10.010;2023-07-09T21:17:49;23.07;;;6.20;;
20443;SDS011;10381;53.730;10.010;2023-07-09T21:21:50;12.15;;;5.25;;
20443;SDS011;10381;53.730;10.010;2023-07-09T21:25:50;14.65;;;5.82;;
20443;SDS011;10381;53.730;10.010;2023-07-09T21:29:51;17.30;;;6.03;;
20443;SDS011;10381;53.730;10.010;2023-07-09T21:33:51;14.60;;;5.97;;
20443;SDS011;10381;53.730;10.010;2023-07-09T21:37:52;18.77;;;6.83;;
20443;SDS011;10381;53.730;10.010;2023-07-09T21:41:54;20.25;;;6.78;;
20443;SDS011;10381;53.730;10.010;2023-07-09T21:45:56;23.60;;;6.38;;
20443;SDS011;10381;53.730;10.010;2023-07-09T21:49:57;17.52;;;6.43;;
20443;SDS011;10381;53.730;10.010;2023-07-09T21:53:58;17.48;;;6.20;;
20443;SDS011;10381;53.730;10.010;2023-07-09T21:57:58;27.57;;;7.57;;
20443;SDS011;10381;53.730;10.010;2023-07-09T22:02:00;29.30;;;7.80;;
20443;SDS011;10381;53.730;10.010;2023-07-09T22:06:01;25.85;;;8.25;;
20443;SDS011;10381;53.730;10.010;2023-07-09T22:10:01;20.00;;;8.13;;
20443;SDS011;10381;53.730;10.010;2023-07-09T22:14:04;21.40;;;7.30;;
20443;SDS011;10381;53.730;10.010;2023-07-09T22:18:13;18.15;;;7.47;;
20443;SDS011;10381;53.730;10.010;2023-07-09T22:22:15;27.25;;;7.97;;
20443;SDS011;10381;53.730;10.010;2023-07-09T22:26:15;18.23;;;7.80;;
20443;SDS011;10381;53.730;10.010;2023-07-09T22:30:17;21.52;;;8.25;;
20443;SDS011;10381;53.730;10.010;2023-07-09T22:34:20;29.35;;;8.70;;
20443;SDS011;10381;53.730;10.010;2023-07-09T22:38:23;26.13;;;9.00;;
20443;SDS011;10381;53.730;10.010;2023-07-09T22:42:27;25.65;;;8.40;;
20443;SDS011;10381;53.730;10.010;2023-07-09T22:46:27;20.03;;;8.33;;
20443;SDS011;10381;53.730;10.010;2023-07-09T22:50:28;23.87;;;9.20;;
20443;SDS011;10381;53.730;10.010;2023-07-09T22:54:30;33.00;;;9.30;;
20443;SDS011;10381;53.730;10.010;2023-07-09T22:58:31;25.53;;;8.63;;
20443;SDS011;10381;53.730;10.010;2023-07-09T23:02:31;36.53;;;9.90;;
20443;SDS011;10381;53.730;10.010;2023-07-09T23:06:31;30.42;;;8.30;;
20443;SDS011;10381;53.730;10.010;2023-07-09T23:10:32;19.42;;;8.73;;
20443;SDS011;10381;53.730;10.010;2023-07-09T23:14:33;21.90;;;8.95;;
20443;SDS011;10381;53.730;10.010;2023-07-09T23:18:34;23.90;;;10.02;;
20443;SDS011;10381;53.730;10.010;2023-07-09T23:22:34;26.63;;;9.23;;
20443;SDS011;10381;53.730;10.010;2023-07-09T23:26:35;31.57;;;10.73;;
20443;SDS011;10381;53.730;10.010;2023-07-09T23:30:41;24.33;;;9.88;;
20443;SDS011;10381;53.730;10.010;2023-07-09T23:34:42;29.67;;;10.50;;
20443;SDS011;10381;53.730;10.010;2023-07-09T23:38:43;27.48;;;11.13;;
20443;SDS011;10381;53.730;10.010;2023-07-09T23:42:44;20.05;;;11.52;;
20443;SDS011;10381;53.730;10.010;2023-07-09T23:46:47;29.60;;;12.20;;
20443;SDS011;10381;53.730;10.010;2023-07-09T23:50:49;33.63;;;11.65;;
20443;SDS011;10381;53.730;10.010;2023-07-09T23:54:50;31.67;;;11.10;;
20443;SDS011;10381;53.730;10.010;2023-07-09T23:58:50;34.30;;;11.57;;
